Yusho Mermaid 2 — 3ESQ2 — position and weather

sailwx.info

Track history (hours):
 
Tides and Currents Weather Stations Pressure Air Temp Water Temp Dewpoint Dewpoint Depression Visibility Wind Speed Wind Dir Waves Ship Positions

Yusho Mermaid 2

Last reported at 2017-Oct-03 13:47 UTC. Time now 2017-Oct-18 11:14 UTC.
Position N 31°00' E 122°26'.
Warning: this ship's position is 14 days out of date.

Length 82 m; draft 5.2 m.

Type: Ship (hazmat cat A). MMSI: 370391000.

Date/timePositionNaut miles runAvg speedWind from/ knotsBaromVisibWave heightAir tempDewpointWater temp
2017-Oct-03 13:47N 31°00' E 122°26'4 9.3
2017-Oct-03 13:22N 31°01' E 122°21'3 8.9
2017-Oct-03 12:58N 31°02' E 122°17'4 7.5
2017-Oct-03 12:30N 31°02' E 122°13'3 5.0
2017-Oct-03 12:00N 31°03' E 122°10'3 6.5
2017-Oct-03 11:30N 31°03' E 122°07'4 8.5
2017-Oct-03 11:01N 31°04' E 122°02'4 8.3
2017-Oct-03 10:30N 31°06' E 121°58'611.1
2017-Oct-03 10:00N 31°09' E 121°52'713.8
2017-Oct-03 09:31N 31°15' E 121°47'713.6
2017-Oct-03 09:00N 31°20' E 121°41'611.6
2017-Oct-03 08:30N 31°23' E 121°36'5 9.3
2017-Oct-03 08:00N 31°23' E 121°30'3 5.4
2017-Oct-03 07:29N 31°21' E 121°32'3 6.5
2017-Oct-03 06:59N 31°18' E 121°34'3 6.2
2017-Oct-03 06:30N 31°15' E 121°32'2 4.8
2017-Oct-03 06:01N 31°14' E 121°30'3 5.8
2017-Oct-03 05:30N 31°11' E 121°28'3 6.5
2017-Oct-03 05:00N 31°08' E 121°28'2 3.8
2017-Oct-03 04:25N 31°06' E 121°28'0 0.0
2017-Oct-03 03:55N 31°06' E 121°28'0 0.0
2017-Oct-03 03:22N 31°06' E 121°28'0 0.0
2017-Oct-03 02:52N 31°06' E 121°28'0 0.0
2017-Oct-03 02:07N 31°06' E 121°28'0 0.0
2017-Oct-03 01:52N 31°06' E 121°28'0 0.0
2017-Oct-03 01:28N 31°06' E 121°28'0 0.0
2017-Oct-03 00:49N 31°06' E 121°28'0 0.0
2017-Oct-03 00:28N 31°06' E 121°28'0 0.0
2017-Oct-02 23:58N 31°06' E 121°28'0 0.0
2017-Oct-02 23:22N 31°06' E 121°28'0 0.0
2017-Oct-02 22:49N 31°06' E 121°28'0 0.0
2017-Oct-02 22:07N 31°06' E 121°28'0 0.0
2017-Oct-02 21:58N 31°06' E 121°28'0 0.0
2017-Oct-02 21:28N 31°06' E 121°28'0 0.0
2017-Oct-02 20:52N 31°06' E 121°28'0 0.0
2017-Oct-02 20:25N 31°06' E 121°28'0 0.0
2017-Oct-02 19:46N 31°06' E 121°28'0 0.0
2017-Oct-02 19:28N 31°06' E 121°28'0 0.0
2017-Oct-02 18:58N 31°06' E 121°28'0 0.0
2017-Oct-02 18:28N 31°06' E 121°28'0 0.0
2017-Oct-02 17:55N 31°06' E 121°28'0 0.0
2017-Oct-02 17:28N 31°06' E 121°28'0 0.0
2017-Oct-02 16:58N 31°06' E 121°28'0 0.0
2017-Oct-02 16:19N 31°06' E 121°28'0 0.2
2017-Oct-02 15:58N 31°06' E 121°28'0 0.0
2017-Oct-02 15:28N 31°06' E 121°28'0 0.1
2017-Oct-02 14:58N 31°06' E 121°28'0 0.1
2017-Oct-02 14:28N 31°06' E 121°28'0 0.0
2017-Oct-02 13:55N 31°06' E 121°28'0 0.0
2017-Oct-02 13:28N 31°06' E 121°28'0 0.0
2017-Oct-02 12:58N 31°06' E 121°28'0 0.0
2017-Oct-02 12:25N 31°06' E 121°28'0 0.0
2017-Oct-02 11:58N 31°06' E 121°28'0 0.0
2017-Oct-02 11:28N 31°06' E 121°28'0 0.0
2017-Oct-02 10:58N 31°06' E 121°28'0 0.0
2017-Oct-02 10:13N 31°06' E 121°28'0 0.0
2017-Oct-02 09:52N 31°06' E 121°28'0 0.0
2017-Oct-02 09:28N 31°06' E 121°28'0 0.0
2017-Oct-02 08:58N 31°06' E 121°28'0 0.0
2017-Oct-02 08:22N 31°06' E 121°28'0 0.0
2017-Oct-02 07:58N 31°06' E 121°28'0 0.0
2017-Oct-02 07:19N 31°06' E 121°28'0 0.0
2017-Oct-02 06:58N 31°06' E 121°28'0 0.0
2017-Oct-02 06:28N 31°06' E 121°28'0 0.1
2017-Oct-02 06:00N 31°06' E 121°28'2 4.7
2017-Oct-02 05:30N 31°08' E 121°27'3 5.1
2017-Oct-02 04:59N 31°11' E 121°28'3 6.7
2017-Oct-02 04:30N 31°13' E 121°30'2 3.7
2017-Oct-02 04:00N 31°15' E 121°31'3 6.4
2017-Oct-02 03:30N 31°17' E 121°34'3 6.9
2017-Oct-02 03:00N 31°20' E 121°33'3 6.4
2017-Oct-02 02:30N 31°23' E 121°30'3 5.6
2017-Oct-02 02:00N 31°24' E 121°33'611.2
2017-Oct-02 01:30N 31°21' E 121°39'611.3
2017-Oct-02 01:00N 31°18' E 121°44'612.3
2017-Oct-02 00:30N 31°13' E 121°49'612.1
2017-Oct-02 00:00N 31°09' E 121°54'611.6
2017-Oct-01 23:30N 31°06' E 121°60'611.7
2017-Oct-01 23:00N 31°04' E 122°06'511.1
2017-Oct-01 22:30N 31°03' E 122°12'14 8.1
2017-Oct-01 20:43N 31°00' E 122°29'3 8.0
2017-Oct-01 20:23N 30°60' E 122°32'4 9.7
2017-Oct-01 19:56N 30°59' E 122°37'  
2017-Sep-27 15:21N 34°36' E 134°54'512.0
2017-Sep-27 14:56N 34°38' E 135°00'511.6
2017-Sep-27 14:30N 34°35' E 135°05'611.4
2017-Sep-27 14:00N 34°29' E 135°04'611.7
2017-Sep-27 13:30N 34°24' E 135°02'611.5
2017-Sep-27 13:00N 34°18' E 134°59'511.0
2017-Sep-27 12:31N 34°13' E 134°60'611.5
2017-Sep-27 12:01N 34°07' E 135°00'226 9.4
2017-Sep-26 12:03N 34°55' E 139°27'110.3
2017-Sep-26 11:57N 34°56' E 139°28'510.3
2017-Sep-26 11:30N 34°59' E 139°33'5 9.6
2017-Sep-26 11:00N 35°02' E 139°37'510.1
2017-Sep-26 10:30N 35°06' E 139°41'510.5
2017-Sep-26 10:00N 35°10' E 139°45'510.8
2017-Sep-26 09:30N 35°15' E 139°46'510.9
2017-Sep-26 09:00N 35°20' E 139°43'510.1
2017-Sep-26 08:30N 35°25' E 139°43'510.4
2017-Sep-26 08:01N 35°28' E 139°49'510.5
2017-Sep-26 07:30N 35°31' E 139°54'510.4
2017-Sep-26 07:00N 35°35' E 139°58'5 9.6
2017-Sep-26 06:31N 35°39' E 139°58'1 0.0
2017-Sep-25 08:52N 35°40' E 139°57'3 7.4
2017-Sep-25 08:30N 35°38' E 139°59'3 5.5
2017-Sep-25 07:59N 35°35' E 139°59'0 0.0
2017-Sep-25 03:10N 35°35' E 139°60'0 0.0
2017-Sep-25 02:58N 35°35' E 139°60'0 0.0
2017-Sep-25 01:43N 35°35' E 139°60'0 0.0
2017-Sep-24 19:07N 35°35' E 139°60'0 0.0
2017-Sep-24 18:58N 35°35' E 139°60'0 0.0
2017-Sep-24 17:58N 35°35' E 139°60'0 0.0
2017-Sep-24 16:37N 35°35' E 139°60'0 0.0
2017-Sep-24 12:21N 35°35' E 139°60'0 0.0
2017-Sep-24 11:55N 35°35' E 139°60'0 0.0
2017-Sep-24 11:25N 35°35' E 139°60'0 0.0
2017-Sep-24 10:49N 35°35' E 139°60'0 0.0
2017-Sep-24 10:31N 35°35' E 139°60'0 0.1
2017-Sep-24 10:01N 35°35' E 139°60'0 0.0
2017-Sep-24 09:27N 35°35' E 139°60'0 0.0
2017-Sep-24 08:40N 35°35' E 139°60'0 0.0
2017-Sep-24 08:25N 35°35' E 139°60'0 0.0
2017-Sep-24 08:01N 35°35' E 139°60'  
Track history (hours):
 
Tides and Currents Weather Stations Pressure Air Temp Water Temp Dewpoint Dewpoint Depression Visibility Wind Speed Wind Dir Waves Ship Positions

Yusho Mermaid 2

Last reported at 2017-Oct-03 13:47 UTC. Time now 2017-Oct-18 11:14 UTC.
Position N 31°00' E 122°26'.
Warning: this ship's position is 14 days out of date.

Length 82 m; draft 5.2 m.

Type: Ship (hazmat cat A). MMSI: 370391000.

Date/timePositionNaut miles runAvg speedWind from/ knotsBaromVisibWave heightAir tempDewpointWater temp
2017-Oct-03 13:47N 31°00' E 122°26'4 9.3
2017-Oct-03 13:22N 31°01' E 122°21'3 8.9
2017-Oct-03 12:58N 31°02' E 122°17'4 7.5
2017-Oct-03 12:30N 31°02' E 122°13'3 5.0
2017-Oct-03 12:00N 31°03' E 122°10'3 6.5
2017-Oct-03 11:30N 31°03' E 122°07'4 8.5
2017-Oct-03 11:01N 31°04' E 122°02'4 8.3
2017-Oct-03 10:30N 31°06' E 121°58'611.1
2017-Oct-03 10:00N 31°09' E 121°52'713.8
2017-Oct-03 09:31N 31°15' E 121°47'713.6
2017-Oct-03 09:00N 31°20' E 121°41'611.6
2017-Oct-03 08:30N 31°23' E 121°36'5 9.3
2017-Oct-03 08:00N 31°23' E 121°30'3 5.4
2017-Oct-03 07:29N 31°21' E 121°32'3 6.5
2017-Oct-03 06:59N 31°18' E 121°34'3 6.2
2017-Oct-03 06:30N 31°15' E 121°32'2 4.8
2017-Oct-03 06:01N 31°14' E 121°30'3 5.8
2017-Oct-03 05:30N 31°11' E 121°28'3 6.5
2017-Oct-03 05:00N 31°08' E 121°28'2 3.8
2017-Oct-03 04:25N 31°06' E 121°28'0 0.0
2017-Oct-03 03:55N 31°06' E 121°28'0 0.0
2017-Oct-03 03:22N 31°06' E 121°28'0 0.0
2017-Oct-03 02:52N 31°06' E 121°28'0 0.0
2017-Oct-03 02:07N 31°06' E 121°28'0 0.0
2017-Oct-03 01:52N 31°06' E 121°28'0 0.0
2017-Oct-03 01:28N 31°06' E 121°28'0 0.0
2017-Oct-03 00:49N 31°06' E 121°28'0 0.0
2017-Oct-03 00:28N 31°06' E 121°28'0 0.0
2017-Oct-02 23:58N 31°06' E 121°28'0 0.0
2017-Oct-02 23:22N 31°06' E 121°28'0 0.0
2017-Oct-02 22:49N 31°06' E 121°28'0 0.0
2017-Oct-02 22:07N 31°06' E 121°28'0 0.0
2017-Oct-02 21:58N 31°06' E 121°28'0 0.0
2017-Oct-02 21:28N 31°06' E 121°28'0 0.0
2017-Oct-02 20:52N 31°06' E 121°28'0 0.0
2017-Oct-02 20:25N 31°06' E 121°28'0 0.0
2017-Oct-02 19:46N 31°06' E 121°28'0 0.0
2017-Oct-02 19:28N 31°06' E 121°28'0 0.0
2017-Oct-02 18:58N 31°06' E 121°28'0 0.0
2017-Oct-02 18:28N 31°06' E 121°28'0 0.0
2017-Oct-02 17:55N 31°06' E 121°28'0 0.0
2017-Oct-02 17:28N 31°06' E 121°28'0 0.0
2017-Oct-02 16:58N 31°06' E 121°28'0 0.0
2017-Oct-02 16:19N 31°06' E 121°28'0 0.2
2017-Oct-02 15:58N 31°06' E 121°28'0 0.0
2017-Oct-02 15:28N 31°06' E 121°28'0 0.1
2017-Oct-02 14:58N 31°06' E 121°28'0 0.1
2017-Oct-02 14:28N 31°06' E 121°28'0 0.0
2017-Oct-02 13:55N 31°06' E 121°28'0 0.0
2017-Oct-02 13:28N 31°06' E 121°28'0 0.0
2017-Oct-02 12:58N 31°06' E 121°28'0 0.0
2017-Oct-02 12:25N 31°06' E 121°28'0 0.0
2017-Oct-02 11:58N 31°06' E 121°28'0 0.0
2017-Oct-02 11:28N 31°06' E 121°28'0 0.0
2017-Oct-02 10:58N 31°06' E 121°28'0 0.0
2017-Oct-02 10:13N 31°06' E 121°28'0 0.0
2017-Oct-02 09:52N 31°06' E 121°28'0 0.0
2017-Oct-02 09:28N 31°06' E 121°28'0 0.0
2017-Oct-02 08:58N 31°06' E 121°28'0 0.0
2017-Oct-02 08:22N 31°06' E 121°28'0 0.0
2017-Oct-02 07:58N 31°06' E 121°28'0 0.0
2017-Oct-02 07:19N 31°06' E 121°28'0 0.0
2017-Oct-02 06:58N 31°06' E 121°28'0 0.0
2017-Oct-02 06:28N 31°06' E 121°28'0 0.1
2017-Oct-02 06:00N 31°06' E 121°28'2 4.7
2017-Oct-02 05:30N 31°08' E 121°27'3 5.1
2017-Oct-02 04:59N 31°11' E 121°28'3 6.7
2017-Oct-02 04:30N 31°13' E 121°30'2 3.7
2017-Oct-02 04:00N 31°15' E 121°31'3 6.4
2017-Oct-02 03:30N 31°17' E 121°34'3 6.9
2017-Oct-02 03:00N 31°20' E 121°33'3 6.4
2017-Oct-02 02:30N 31°23' E 121°30'3 5.6
2017-Oct-02 02:00N 31°24' E 121°33'611.2
2017-Oct-02 01:30N 31°21' E 121°39'611.3
2017-Oct-02 01:00N 31°18' E 121°44'612.3
2017-Oct-02 00:30N 31°13' E 121°49'612.1
2017-Oct-02 00:00N 31°09' E 121°54'611.6
2017-Oct-01 23:30N 31°06' E 121°60'611.7
2017-Oct-01 23:00N 31°04' E 122°06'511.1
2017-Oct-01 22:30N 31°03' E 122°12'14 8.1
2017-Oct-01 20:43N 31°00' E 122°29'3 8.0
2017-Oct-01 20:23N 30°60' E 122°32'4 9.7
2017-Oct-01 19:56N 30°59' E 122°37'  
2017-Sep-27 15:21N 34°36' E 134°54'512.0
2017-Sep-27 14:56N 34°38' E 135°00'511.6
2017-Sep-27 14:30N 34°35' E 135°05'611.4
2017-Sep-27 14:00N 34°29' E 135°04'611.7
2017-Sep-27 13:30N 34°24' E 135°02'611.5
2017-Sep-27 13:00N 34°18' E 134°59'511.0
2017-Sep-27 12:31N 34°13' E 134°60'611.5
2017-Sep-27 12:01N 34°07' E 135°00'226 9.4
2017-Sep-26 12:03N 34°55' E 139°27'110.3
2017-Sep-26 11:57N 34°56' E 139°28'510.3
2017-Sep-26 11:30N 34°59' E 139°33'5 9.6
2017-Sep-26 11:00N 35°02' E 139°37'510.1
2017-Sep-26 10:30N 35°06' E 139°41'510.5
2017-Sep-26 10:00N 35°10' E 139°45'510.8
2017-Sep-26 09:30N 35°15' E 139°46'510.9
2017-Sep-26 09:00N 35°20' E 139°43'510.1
2017-Sep-26 08:30N 35°25' E 139°43'510.4
2017-Sep-26 08:01N 35°28' E 139°49'510.5
2017-Sep-26 07:30N 35°31' E 139°54'510.4
2017-Sep-26 07:00N 35°35' E 139°58'5 9.6
2017-Sep-26 06:31N 35°39' E 139°58'1 0.0
2017-Sep-25 08:52N 35°40' E 139°57'3 7.4
2017-Sep-25 08:30N 35°38' E 139°59'3 5.5
2017-Sep-25 07:59N 35°35' E 139°59'0 0.0
2017-Sep-25 03:10N 35°35' E 139°60'0 0.0
2017-Sep-25 02:58N 35°35' E 139°60'0 0.0
2017-Sep-25 01:43N 35°35' E 139°60'0 0.0
2017-Sep-24 19:07N 35°35' E 139°60'0 0.0
2017-Sep-24 18:58N 35°35' E 139°60'0 0.0
2017-Sep-24 17:58N 35°35' E 139°60'0 0.0
2017-Sep-24 16:37N 35°35' E 139°60'0 0.0
2017-Sep-24 12:21N 35°35' E 139°60'0 0.0
2017-Sep-24 11:55N 35°35' E 139°60'0 0.0
2017-Sep-24 11:25N 35°35' E 139°60'0 0.0
2017-Sep-24 10:49N 35°35' E 139°60'0 0.0
2017-Sep-24 10:31N 35°35' E 139°60'0 0.1
2017-Sep-24 10:01N 35°35' E 139°60'0 0.0
2017-Sep-24 09:27N 35°35' E 139°60'0 0.0
2017-Sep-24 08:40N 35°35' E 139°60'0 0.0
2017-Sep-24 08:25N 35°35' E 139°60'0 0.0
2017-Sep-24 08:01N 35°35' E 139°60'  

Dump ship's entire track history